createdAt,value
2018-04-20T00:00:51.960Z,14.47
2018-04-20T00:01:52.146Z,14.43
2018-04-20T00:02:52.319Z,14.40
2018-04-20T00:03:52.500Z,14.41
2018-04-20T00:04:52.689Z,14.41
2018-04-20T00:05:52.864Z,14.45
2018-04-20T00:06:53.043Z,14.47
2018-04-20T00:07:53.216Z,14.47
2018-04-20T00:08:53.401Z,14.41
2018-04-20T00:09:53.585Z,14.43
2018-04-20T00:10:53.768Z,14.32
2018-04-20T00:11:53.961Z,14.26
2018-04-20T00:12:54.130Z,14.32
2018-04-20T00:13:54.317Z,14.37
2018-04-20T00:14:54.499Z,14.29
2018-04-20T00:15:54.695Z,14.29
2018-04-20T00:16:54.876Z,14.33
2018-04-20T00:17:55.061Z,14.36
2018-04-20T00:18:55.229Z,14.25
2018-04-20T00:19:55.414Z,14.30
2018-04-20T00:20:55.598Z,14.25
2018-04-20T00:21:55.781Z,14.15
2018-04-20T00:22:55.975Z,14.20
2018-04-20T00:23:56.154Z,14.07
2018-04-20T00:24:56.331Z,13.97
2018-04-20T00:25:56.515Z,14.03
2018-04-20T00:26:56.710Z,14.07
2018-04-20T00:28:57.069Z,13.99
2018-04-20T00:29:57.256Z,13.89
2018-04-20T00:30:57.431Z,14.03
2018-04-20T00:31:57.614Z,13.95
2018-04-20T00:32:57.786Z,13.93
2018-04-20T00:33:57.978Z,13.85
2018-04-20T00:34:58.167Z,13.85
2018-04-20T00:35:58.337Z,13.78
2018-04-20T00:36:58.523Z,13.86
2018-04-20T00:37:58.703Z,13.89
2018-04-20T00:38:58.897Z,13.86
2018-04-20T00:39:59.079Z,13.74
2018-04-20T00:40:59.249Z,13.72
2018-04-20T00:41:59.437Z,13.68
2018-04-20T00:42:59.621Z,13.62
2018-04-20T00:43:59.796Z,13.60
2018-04-20T00:44:59.984Z,13.63
2018-04-20T00:46:00.162Z,13.54
2018-04-20T00:47:00.349Z,13.59
2018-04-20T00:48:00.533Z,13.62
2018-04-20T00:49:00.708Z,13.68
2018-04-20T00:50:00.893Z,13.67
2018-04-20T00:51:01.078Z,13.75
2018-04-20T00:52:01.499Z,13.71
2018-04-20T00:53:01.440Z,13.75
2018-04-20T00:54:01.624Z,13.78
2018-04-20T00:55:01.814Z,13.79
2018-04-20T00:56:01.995Z,13.75
2018-04-20T00:57:02.181Z,13.67
2018-04-20T00:58:02.359Z,13.59
2018-04-20T00:59:02.539Z,13.65
2018-04-20T01:00:02.729Z,13.60
2018-04-20T01:01:02.907Z,13.59
2018-04-20T01:02:03.145Z,13.57
2018-04-20T01:03:03.272Z,13.63
2018-04-20T01:04:03.452Z,13.62
2018-04-20T01:05:03.631Z,13.52
2018-04-20T01:06:03.815Z,13.54
2018-04-20T01:07:04.001Z,13.62
2018-04-20T01:08:04.187Z,13.56
2018-04-20T01:09:04.359Z,13.52
2018-04-20T01:10:04.536Z,13.41
2018-04-20T01:11:04.715Z,13.27
2018-04-20T01:13:05.076Z,13.19
2018-04-20T01:14:05.259Z,13.22
2018-04-20T01:15:05.441Z,13.15
2018-04-20T01:16:05.626Z,13.15
2018-04-20T01:17:05.810Z,13.23
2018-04-20T01:18:05.994Z,13.22
2018-04-20T01:19:06.184Z,13.27
2018-04-20T01:20:06.354Z,13.28
2018-04-20T01:21:06.536Z,13.28
2018-04-20T01:22:06.719Z,13.42
2018-04-20T01:23:06.904Z,13.37
2018-04-20T01:24:07.092Z,13.44
2018-04-20T01:25:07.266Z,13.41
2018-04-20T01:26:07.775Z,13.38
2018-04-20T01:27:07.661Z,13.46
2018-04-20T01:28:07.842Z,13.30
2018-04-20T01:29:08.025Z,13.27
2018-04-20T01:30:08.202Z,13.27
2018-04-20T01:31:08.391Z,13.19
2018-04-20T01:32:08.569Z,13.23
2018-04-20T01:33:09.063Z,13.22
2018-04-20T01:34:08.941Z,13.20
2018-04-20T01:35:09.135Z,13.18
2018-04-20T01:37:09.474Z,13.11
2018-04-20T01:38:09.659Z,13.25
2018-04-20T01:39:09.844Z,13.18
2018-04-20T01:40:10.037Z,13.18
2018-04-20T01:41:10.207Z,13.15
2018-04-20T01:42:10.389Z,13.08
2018-04-20T01:43:10.574Z,13.15
2018-04-20T01:44:10.752Z,13.23
2018-04-20T01:45:10.951Z,13.12
2018-04-20T01:46:11.129Z,13.00
2018-04-20T01:47:11.312Z,13.00
2018-04-20T01:48:11.491Z,13.16
2018-04-20T01:49:11.675Z,13.00
2018-04-20T01:50:11.851Z,13.01
2018-04-20T01:51:12.035Z,12.97
2018-04-20T01:52:12.210Z,12.83
2018-04-20T01:53:12.391Z,12.86
2018-04-20T01:54:12.584Z,12.82
2018-04-20T01:55:12.752Z,12.87
2018-04-20T01:56:12.941Z,12.83
2018-04-20T01:57:13.121Z,12.82
2018-04-20T01:58:13.284Z,12.79
2018-04-20T01:59:13.465Z,12.85
2018-04-20T02:00:13.652Z,12.91
2018-04-20T02:01:13.816Z,12.82
2018-04-20T02:02:14.006Z,12.73
2018-04-20T02:03:14.179Z,12.79
2018-04-20T02:04:14.362Z,12.83
2018-04-20T02:05:14.547Z,12.94
2018-04-20T02:06:14.723Z,12.86
2018-04-20T02:07:15.241Z,12.90
2018-04-20T02:08:15.116Z,12.73
2018-04-20T02:09:15.268Z,12.76
2018-04-20T02:10:15.453Z,12.72
2018-04-20T02:11:15.640Z,12.72
2018-04-20T02:12:15.822Z,12.79
2018-04-20T02:13:16.032Z,12.64
2018-04-20T02:14:16.187Z,12.70
2018-04-20T02:15:16.372Z,12.73
2018-04-20T02:16:16.553Z,12.70
2018-04-20T02:18:16.908Z,12.78
2018-04-20T02:19:17.092Z,12.85
2018-04-20T02:20:17.273Z,12.78
2018-04-20T02:21:17.460Z,12.64
2018-04-20T02:22:17.650Z,12.61
2018-04-20T02:23:17.821Z,12.64
2018-04-20T02:24:17.996Z,12.67
2018-04-20T02:25:18.175Z,12.62
2018-04-20T02:26:18.360Z,12.62
2018-04-20T02:27:18.532Z,12.60
2018-04-20T02:28:18.715Z,12.61
2018-04-20T02:29:18.893Z,12.53
2018-04-20T02:30:19.079Z,12.60
2018-04-20T02:31:19.263Z,12.72
2018-04-20T02:32:19.429Z,12.64
2018-04-20T02:33:19.609Z,12.76
2018-04-20T02:34:19.798Z,12.76
2018-04-20T02:35:19.973Z,12.68
2018-04-20T02:36:20.202Z,12.68
2018-04-20T02:37:20.336Z,12.61
2018-04-20T02:38:20.509Z,12.70
2018-04-20T02:39:20.689Z,12.64
2018-04-20T02:40:20.877Z,12.67
2018-04-20T02:41:21.060Z,12.47
2018-04-20T02:42:21.257Z,12.47
2018-04-20T02:43:21.433Z,12.39
2018-04-20T02:44:21.606Z,12.31
2018-04-20T02:45:21.800Z,12.27
2018-04-20T02:46:21.976Z,12.22
2018-04-20T02:47:22.153Z,12.27
2018-04-20T02:48:22.319Z,12.21
2018-04-20T02:49:22.503Z,12.22
2018-04-20T02:50:22.679Z,12.29
2018-04-20T02:51:22.864Z,12.24
2018-04-20T02:52:23.041Z,12.22
2018-04-20T02:53:23.226Z,12.22
2018-04-20T02:54:23.415Z,12.12
2018-04-20T02:55:23.592Z,12.20
2018-04-20T02:56:23.776Z,12.15
2018-04-20T02:58:24.139Z,12.15
2018-04-20T02:59:24.331Z,12.24
2018-04-20T03:00:24.515Z,12.28
2018-04-20T03:01:24.700Z,12.21
2018-04-20T03:02:24.879Z,12.18
2018-04-20T03:03:25.055Z,12.20
2018-04-20T03:04:25.241Z,12.24
2018-04-20T03:05:25.418Z,12.27
2018-04-20T03:06:25.613Z,12.18
2018-04-20T03:07:25.795Z,12.25
2018-04-20T03:08:25.969Z,12.22
2018-04-20T03:09:26.157Z,12.22
2018-04-20T03:10:26.336Z,12.22
2018-04-20T03:11:26.534Z,12.24
2018-04-20T03:12:26.704Z,12.20
2018-04-20T03:13:26.891Z,12.18
2018-04-20T03:14:27.070Z,11.95
2018-04-20T03:15:27.257Z,11.90
2018-04-20T03:16:27.435Z,11.90
2018-04-20T03:17:27.617Z,11.90
2018-04-20T03:18:27.796Z,11.87
2018-04-20T03:19:27.985Z,11.75
2018-04-20T03:20:28.173Z,11.91
2018-04-20T03:21:28.343Z,11.87
2018-04-20T03:22:28.523Z,11.94
2018-04-20T03:23:28.708Z,11.95
2018-04-20T03:24:28.891Z,11.88
2018-04-20T03:25:29.076Z,11.83
2018-04-20T03:26:29.260Z,11.94
2018-04-20T03:27:29.437Z,11.87
2018-04-20T03:28:29.628Z,12.02
2018-04-20T03:29:29.800Z,11.94
2018-04-20T03:30:29.986Z,12.03
2018-04-20T03:31:30.169Z,12.03
2018-04-20T03:32:30.347Z,11.91
2018-04-20T03:33:30.529Z,12.03
2018-04-20T03:34:30.705Z,11.86
2018-04-20T03:35:30.900Z,11.90
2018-04-20T03:36:31.071Z,11.88
2018-04-20T03:37:31.248Z,11.97
2018-04-20T03:38:31.431Z,11.94
2018-04-20T03:39:31.612Z,11.81
2018-04-20T03:40:31.793Z,11.78
2018-04-20T03:41:31.969Z,11.59
2018-04-20T03:42:32.154Z,11.63
2018-04-20T03:43:32.341Z,11.55
2018-04-20T03:44:32.529Z,11.51
2018-04-20T03:45:32.727Z,11.55
2018-04-20T03:46:32.911Z,11.59
2018-04-20T03:47:33.091Z,11.54
2018-04-20T03:48:33.274Z,11.55
2018-04-20T03:49:33.457Z,11.51
2018-04-20T03:50:33.635Z,11.51
2018-04-20T03:51:33.824Z,11.55
2018-04-20T03:52:34.004Z,11.44
2018-04-20T03:53:34.687Z,11.40
2018-04-20T03:54:34.353Z,11.40
2018-04-20T03:55:34.533Z,11.44
2018-04-20T03:56:34.958Z,11.43
2018-04-20T03:57:34.897Z,11.44
2018-04-20T03:58:35.083Z,11.41
2018-04-20T04:00:35.434Z,11.43
2018-04-20T04:01:35.611Z,11.29
2018-04-20T04:02:35.787Z,11.00
2018-04-20T04:03:35.966Z,10.97
2018-04-20T04:04:36.150Z,11.04
2018-04-20T04:05:36.327Z,11.17
2018-04-20T04:06:36.517Z,11.18
2018-04-20T04:07:36.707Z,11.19
2018-04-20T04:08:36.862Z,11.25
2018-04-20T04:13:09.805Z,11.08
2018-04-20T04:14:09.730Z,11.08
2018-04-20T04:15:09.869Z,11.08
2018-04-20T04:16:10.054Z,11.12
2018-04-20T04:17:10.245Z,11.10
2018-04-20T04:18:10.425Z,11.12
2018-04-20T04:19:10.599Z,11.00
2018-04-20T04:20:10.774Z,11.07
2018-04-20T04:21:10.969Z,10.99
2018-04-20T04:22:11.160Z,10.96
2018-04-20T04:23:11.340Z,11.08
2018-04-20T04:24:11.521Z,11.14
2018-04-20T04:25:11.697Z,11.18
2018-04-20T04:26:11.866Z,11.26
2018-04-20T04:27:12.060Z,11.30
2018-04-20T04:28:12.235Z,11.41
2018-04-20T04:29:12.416Z,11.43
2018-04-20T04:30:12.605Z,11.44
2018-04-20T04:31:12.776Z,11.41
2018-04-20T04:32:12.961Z,11.52
2018-04-20T04:33:13.152Z,11.68
2018-04-20T04:34:13.322Z,11.65
2018-04-20T04:35:13.504Z,11.62
2018-04-20T04:36:13.669Z,11.68
2018-04-20T04:37:13.850Z,11.72
2018-04-20T04:38:14.039Z,11.69
2018-04-20T04:39:14.215Z,11.65
2018-04-20T04:40:14.666Z,11.83
2018-04-20T04:41:14.571Z,11.91
2018-04-20T04:42:15.551Z,11.86
2018-04-20T04:43:14.984Z,11.97
2018-04-20T04:44:15.152Z,11.95
2018-04-20T04:45:15.335Z,11.60
2018-04-20T04:46:15.516Z,11.41
2018-04-20T04:47:15.711Z,11.48
2018-04-20T04:48:15.884Z,11.63
2018-04-20T04:49:16.058Z,11.55
2018-04-20T04:50:16.250Z,11.45
2018-04-20T04:51:16.424Z,11.51
2018-04-20T04:52:16.612Z,11.43
2018-04-20T04:53:16.791Z,11.66
2018-04-20T04:54:16.970Z,11.78
2018-04-20T04:55:17.153Z,12.00
2018-04-20T04:56:17.335Z,12.32
2018-04-20T04:57:17.520Z,12.46
2018-04-20T04:58:17.702Z,12.80
2018-04-20T04:59:17.878Z,13.04
2018-04-20T05:00:18.115Z,13.35
2018-04-20T05:01:18.264Z,13.49
2018-04-20T05:02:18.421Z,13.59
2018-04-20T05:03:18.600Z,13.60
2018-04-20T05:04:19.028Z,13.75
2018-04-20T05:05:18.968Z,13.92
2018-04-20T05:06:19.149Z,14.00
2018-04-20T05:07:19.342Z,14.07
2018-04-20T05:08:19.529Z,14.26
2018-04-20T05:09:19.712Z,14.45
2018-04-20T05:10:19.894Z,14.51
2018-04-20T05:11:20.384Z,14.63
2018-04-20T05:12:20.263Z,14.73
2018-04-20T05:13:20.446Z,14.62
2018-04-20T05:14:20.627Z,14.55
2018-04-20T05:15:20.811Z,14.55
2018-04-20T05:16:20.995Z,14.44
2018-04-20T05:17:21.169Z,14.35
2018-04-20T05:18:21.359Z,14.26
2018-04-20T05:19:21.553Z,14.00
2018-04-20T05:20:21.729Z,14.07
2018-04-20T05:21:21.919Z,13.89
2018-04-20T05:22:22.994Z,13.85
2018-04-20T05:23:23.007Z,13.74
2018-04-20T05:24:22.441Z,13.78
2018-04-20T05:27:15.178Z,14.18
2018-04-20T05:28:15.079Z,14.32
2018-04-20T05:29:15.268Z,14.54
2018-04-20T05:30:15.456Z,14.73
2018-04-20T05:31:15.632Z,15.02
2018-04-20T05:32:15.813Z,15.21
2018-04-20T05:33:15.990Z,15.46
2018-04-20T05:34:16.175Z,15.55
2018-04-20T05:35:16.351Z,15.75
2018-04-20T05:36:16.536Z,15.75
2018-04-20T05:37:16.728Z,15.77
2018-04-20T05:38:16.901Z,15.65
2018-04-20T05:39:17.092Z,15.55
2018-04-20T05:40:17.270Z,15.77
2018-04-20T05:41:17.450Z,15.76
2018-04-20T05:42:17.635Z,15.82
2018-04-20T05:43:17.822Z,15.82
2018-04-20T05:44:18.013Z,15.79
2018-04-20T05:45:18.191Z,15.84
2018-04-20T05:46:18.368Z,15.80
2018-04-20T05:47:18.556Z,15.92
2018-04-20T05:48:18.733Z,16.05
2018-04-20T05:49:18.929Z,16.15
2018-04-20T05:50:19.109Z,16.16
2018-04-20T05:51:19.558Z,16.13
2018-04-20T05:52:19.482Z,16.32
2018-04-20T05:53:19.673Z,16.41
2018-04-20T05:54:19.860Z,16.42
2018-04-20T05:55:20.044Z,16.61
2018-04-20T05:56:20.231Z,16.53
2018-04-20T05:57:20.412Z,16.69
2018-04-20T05:58:20.597Z,16.93
2018-04-20T05:59:20.782Z,16.64
2018-04-20T06:00:20.967Z,16.94
2018-04-20T06:01:21.496Z,17.20
2018-04-20T06:02:21.342Z,16.79
2018-04-20T06:03:21.596Z,16.54
2018-04-20T06:04:21.687Z,16.53
2018-04-20T06:05:21.867Z,17.06
2018-04-20T06:06:22.056Z,17.06
2018-04-20T06:07:22.257Z,16.86
2018-04-20T06:08:22.440Z,17.12
2018-04-20T06:09:22.622Z,17.16
2018-04-20T06:10:22.791Z,17.34
2018-04-20T06:11:22.974Z,17.05
2018-04-20T06:12:23.158Z,17.39
2018-04-20T06:13:23.342Z,17.65
2018-04-20T06:14:23.519Z,17.89
2018-04-20T06:15:23.707Z,18.00
2018-04-20T06:16:23.888Z,18.04
2018-04-20T06:17:24.067Z,18.04
2018-04-20T06:18:24.227Z,18.03
2018-04-20T06:19:24.420Z,18.19
2018-04-20T06:20:24.590Z,18.47
2018-04-20T06:21:24.783Z,18.49
2018-04-20T06:22:24.963Z,18.22
2018-04-20T06:23:25.119Z,18.41
2018-04-20T06:24:25.332Z,18.43
2018-04-20T06:25:25.768Z,18.66
2018-04-20T06:26:25.670Z,18.63
2018-04-20T06:27:25.825Z,18.56
2018-04-20T06:28:26.024Z,18.45
2018-04-20T06:29:26.234Z,18.44
2018-04-20T06:30:26.374Z,18.56
2018-04-20T06:31:26.570Z,18.62
2018-04-20T06:32:26.721Z,18.70
2018-04-20T06:33:26.884Z,19.11
2018-04-20T06:34:27.088Z,19.27
2018-04-20T06:35:27.454Z,19.48
2018-04-20T06:36:27.406Z,19.51
2018-04-20T06:37:27.562Z,19.64
2018-04-20T06:38:27.767Z,19.70
2018-04-20T06:39:27.980Z,19.64
2018-04-20T06:40:28.145Z,19.69
2018-04-20T06:41:28.324Z,19.74
2018-04-20T06:42:28.732Z,20.03
2018-04-20T06:43:28.683Z,20.29
2018-04-20T06:44:28.863Z,20.04
2018-04-20T06:45:29.045Z,20.31
2018-04-20T06:46:29.201Z,20.66
2018-04-20T06:47:29.423Z,20.63
2018-04-20T06:48:29.607Z,20.82
2018-04-20T06:49:29.775Z,20.82
2018-04-20T06:50:29.919Z,20.92
2018-04-20T06:51:30.104Z,20.77
2018-04-20T06:52:30.284Z,20.63
2018-04-20T06:53:30.603Z,20.66
2018-04-20T06:54:30.691Z,20.81
2018-04-20T06:55:30.903Z,21.00
2018-04-20T06:56:31.050Z,20.80
2018-04-20T06:57:31.238Z,20.72
2018-04-20T06:58:31.427Z,20.81
2018-04-20T06:59:31.632Z,20.97
2018-04-20T07:00:31.821Z,21.05
2018-04-20T07:01:32.012Z,21.12
2018-04-20T07:02:32.199Z,20.55
2018-04-20T07:03:32.348Z,20.59
2018-04-20T07:04:32.564Z,20.81
2018-04-20T07:05:32.729Z,20.87
2018-04-20T07:06:33.232Z,20.74
2018-04-20T07:07:33.112Z,21.11
2018-04-20T07:08:33.293Z,21.15
2018-04-20T07:09:33.485Z,21.30
2018-04-20T07:10:33.666Z,21.35
2018-04-20T07:11:33.849Z,20.78
2018-04-20T07:12:34.061Z,21.05
2018-04-20T07:13:34.287Z,21.46
2018-04-20T07:14:34.448Z,21.51
2018-04-20T07:15:34.620Z,21.14
2018-04-20T07:16:34.794Z,20.04
2018-04-20T07:17:34.995Z,19.86
2018-04-20T07:18:35.183Z,20.70
2018-04-20T07:19:35.354Z,21.39
2018-04-20T07:20:35.523Z,21.22
2018-04-20T07:21:35.730Z,21.69
2018-04-20T07:22:35.937Z,21.96
2018-04-20T07:23:36.078Z,22.25
2018-04-20T07:24:36.245Z,21.06
2018-04-20T07:25:36.404Z,20.48
2018-04-20T07:26:36.600Z,20.39
2018-04-20T07:27:36.804Z,20.85
2018-04-20T07:28:36.929Z,21.00
2018-04-20T07:29:37.121Z,21.73
2018-04-20T07:30:37.304Z,22.13
2018-04-20T07:31:37.488Z,22.22
2018-04-20T07:32:37.651Z,22.53
2018-04-20T07:33:37.845Z,22.57
2018-04-20T07:34:38.047Z,22.83
2018-04-20T07:35:38.204Z,23.00
2018-04-20T07:36:38.358Z,23.12
2018-04-20T07:37:38.574Z,23.12
2018-04-20T07:38:48.387Z,23.31
2018-04-20T07:39:39.847Z,23.09
2018-04-20T07:40:42.459Z,23.58
2018-04-20T07:41:40.516Z,23.74
2018-04-20T07:42:39.977Z,23.74
2018-04-20T07:43:39.961Z,23.73
2018-04-20T07:44:39.905Z,23.74
2018-04-20T07:45:40.109Z,23.98
2018-04-20T07:46:40.316Z,23.77
2018-04-20T07:47:41.596Z,23.76
2018-04-20T07:48:40.638Z,23.99
2018-04-20T07:49:40.894Z,23.84
2018-04-20T07:50:41.129Z,24.16
2018-04-20T07:51:41.240Z,24.29
2018-04-20T07:52:41.404Z,24.68
2018-04-20T07:53:41.576Z,24.43
2018-04-20T07:54:41.765Z,24.65
2018-04-20T07:55:41.989Z,24.43
2018-04-20T07:56:43.141Z,24.47
2018-04-20T07:57:42.429Z,24.55
2018-04-20T07:58:42.619Z,24.55
2018-04-20T07:59:42.837Z,24.60
2018-04-20T08:00:43.003Z,24.63
2018-04-20T08:01:43.423Z,24.35
2018-04-20T08:02:43.390Z,24.26
2018-04-20T08:03:43.569Z,24.50
2018-04-20T08:04:43.780Z,24.47
2018-04-20T08:05:44.896Z,24.77
2018-04-20T08:06:44.652Z,23.98
2018-04-20T08:07:45.299Z,24.18
2018-04-20T08:08:44.769Z,23.96
2018-04-20T08:09:45.177Z,23.65
2018-04-20T08:10:45.130Z,23.93
2018-04-20T08:11:45.098Z,24.38
2018-04-20T08:12:45.336Z,24.43
2018-04-20T08:13:45.466Z,23.59
2018-04-20T08:14:45.634Z,23.91
2018-04-20T08:15:45.833Z,24.24
2018-04-20T08:16:46.037Z,24.03
2018-04-20T08:17:46.179Z,24.28
2018-04-20T08:18:50.902Z,24.66
2018-04-20T08:19:46.624Z,24.98
2018-04-20T08:20:46.741Z,25.17
2018-04-20T08:21:46.936Z,25.29
2018-04-20T08:22:47.147Z,25.29
2018-04-20T08:23:47.308Z,25.14
2018-04-20T08:24:47.477Z,25.38
2018-04-20T08:25:47.682Z,25.48
2018-04-20T08:26:48.138Z,25.75
2018-04-20T08:27:48.350Z,26.10
2018-04-20T08:28:48.349Z,26.22
2018-04-20T08:29:48.515Z,26.26
2018-04-20T08:30:48.668Z,26.52
2018-04-20T08:31:48.856Z,25.66
2018-04-20T08:32:49.083Z,25.78
2018-04-20T08:33:49.250Z,25.33
2018-04-20T08:34:49.424Z,25.54
2018-04-20T08:35:49.590Z,25.26
2018-04-20T08:36:49.869Z,24.88
2018-04-20T08:37:49.983Z,25.23
2018-04-20T08:38:50.170Z,25.33
2018-04-20T08:39:50.356Z,25.07
2018-04-20T08:40:50.875Z,24.86
2018-04-20T08:41:51.543Z,24.89
2018-04-20T08:42:50.998Z,25.29
2018-04-20T08:43:51.157Z,25.70
2018-04-20T08:44:51.343Z,26.06
2018-04-20T08:45:51.544Z,26.19
2018-04-20T08:46:51.738Z,26.43
2018-04-20T08:47:51.956Z,26.66
2018-04-20T08:48:52.104Z,26.23
2018-04-20T08:49:52.289Z,26.73
2018-04-20T08:50:52.521Z,26.85
2018-04-20T08:51:52.667Z,26.83
2018-04-20T08:52:52.830Z,26.62
2018-04-20T08:53:53.005Z,26.52
2018-04-20T08:54:53.202Z,25.75
2018-04-20T08:55:53.372Z,26.19
2018-04-20T08:56:53.570Z,26.09
2018-04-20T08:57:53.783Z,26.18
2018-04-20T08:58:53.968Z,25.80
2018-04-20T08:59:54.162Z,26.05
2018-04-20T09:00:54.388Z,25.38
2018-04-20T09:01:54.549Z,25.21
2018-04-20T09:02:54.704Z,25.36
2018-04-20T09:03:54.894Z,26.15
2018-04-20T09:04:55.112Z,26.45
2018-04-20T09:05:55.290Z,26.80
2018-04-20T09:06:55.419Z,27.21
2018-04-20T09:07:55.657Z,27.73
2018-04-20T09:08:55.852Z,27.95
2018-04-20T09:09:56.005Z,28.29
2018-04-20T09:10:56.222Z,28.38
2018-04-20T09:11:56.593Z,28.27
2018-04-20T09:12:56.564Z,28.10
2018-04-20T09:13:56.724Z,28.08
2018-04-20T09:14:56.903Z,28.37
2018-04-20T09:15:57.126Z,28.79
2018-04-20T09:16:57.324Z,28.91
2018-04-20T09:17:57.467Z,28.79
2018-04-20T09:18:57.670Z,29.05
2018-04-20T09:19:57.821Z,29.13
2018-04-20T09:20:58.005Z,28.94
2018-04-20T09:21:58.191Z,28.91
2018-04-20T09:22:58.373Z,29.13
2018-04-20T09:23:58.564Z,29.16
2018-04-20T09:24:58.752Z,29.34
2018-04-20T09:25:58.946Z,29.50
2018-04-20T09:26:59.070Z,28.85
2018-04-20T09:27:59.283Z,29.10
2018-04-20T09:28:59.512Z,29.34
2018-04-20T09:29:59.667Z,29.59
2018-04-20T09:30:59.855Z,29.87
2018-04-20T09:32:00.019Z,30.10
2018-04-20T09:33:00.234Z,29.91
2018-04-20T09:34:00.414Z,29.84
2018-04-20T09:35:00.726Z,29.69
2018-04-20T09:36:00.755Z,29.90
2018-04-20T09:37:00.953Z,30.12
2018-04-20T09:38:01.122Z,29.32
2018-04-20T09:39:01.291Z,28.69
2018-04-20T09:40:01.448Z,28.97
2018-04-20T09:41:01.718Z,27.90
2018-04-20T09:42:01.902Z,28.54
2018-04-20T09:43:02.108Z,29.14
2018-04-20T09:44:02.272Z,29.38
2018-04-20T09:45:02.441Z,29.08
2018-04-20T09:46:02.606Z,29.29
2018-04-20T09:47:02.803Z,29.32
2018-04-20T09:48:02.958Z,29.16
2018-04-20T09:49:03.180Z,29.56
2018-04-20T09:50:03.373Z,29.91
2018-04-20T09:51:03.542Z,29.95
2018-04-20T09:52:03.733Z,30.40
2018-04-20T09:53:03.915Z,29.42
2018-04-20T09:54:04.111Z,29.84
2018-04-20T09:55:04.300Z,29.20
2018-04-20T09:56:04.496Z,29.63
2018-04-20T09:57:04.678Z,30.13
2018-04-20T09:58:04.859Z,30.28
2018-04-20T09:59:05.055Z,30.30
2018-04-20T10:01:05.405Z,30.21
2018-04-20T10:02:05.619Z,29.24
2018-04-20T10:03:05.738Z,29.20
2018-04-20T10:04:05.982Z,29.91
2018-04-20T10:05:06.135Z,30.00
2018-04-20T10:06:06.357Z,30.62
2018-04-20T10:07:06.880Z,31.22
2018-04-20T10:08:06.644Z,31.39
2018-04-20T10:09:06.842Z,31.44
2018-04-20T10:10:07.034Z,31.80
2018-04-20T10:11:07.206Z,31.33
2018-04-20T10:12:07.384Z,31.71
2018-04-20T10:13:07.636Z,32.14
2018-04-20T10:14:07.810Z,32.04
2018-04-20T10:15:07.959Z,31.70
2018-04-20T10:16:08.134Z,31.76
2018-04-20T10:17:08.281Z,31.55
2018-04-20T10:18:09.090Z,31.52
2018-04-20T10:19:08.814Z,31.52
2018-04-20T10:20:08.841Z,32.01
2018-04-20T10:21:09.032Z,32.27
2018-04-20T10:22:09.227Z,32.09
2018-04-20T10:23:09.400Z,32.00
2018-04-20T10:24:09.588Z,32.03
2018-04-20T10:25:09.746Z,31.90
2018-04-20T10:26:09.937Z,32.23
2018-04-20T10:27:10.101Z,32.14
2018-04-20T10:28:10.290Z,32.23
2018-04-20T10:29:10.489Z,32.30
2018-04-20T10:30:10.640Z,31.85
2018-04-20T10:31:10.850Z,31.51
2018-04-20T10:32:10.989Z,31.29
2018-04-20T10:33:11.217Z,31.25
2018-04-20T10:34:11.694Z,31.40
2018-04-20T10:35:11.533Z,30.87
2018-04-20T10:36:11.715Z,30.94
2018-04-20T10:37:11.909Z,31.00
2018-04-20T10:38:12.090Z,30.72
2018-04-20T10:39:12.348Z,30.91
2018-04-20T10:40:12.501Z,31.09
2018-04-20T10:41:13.001Z,31.14
2018-04-20T10:42:12.832Z,31.34
2018-04-20T10:43:13.002Z,31.05
2018-04-20T10:44:13.229Z,30.81
2018-04-20T10:45:14.048Z,30.66
2018-04-20T10:46:13.588Z,30.59
2018-04-20T10:47:13.761Z,30.03
2018-04-20T10:48:13.969Z,29.47
2018-04-20T10:49:14.103Z,29.29
2018-04-20T10:50:14.318Z,29.54
2018-04-20T10:51:14.489Z,29.17
2018-04-20T10:52:14.653Z,29.17
2018-04-20T10:53:14.866Z,29.65
2018-04-20T10:54:15.059Z,29.76
2018-04-20T10:55:15.219Z,30.03
2018-04-20T10:56:15.380Z,30.13
2018-04-20T10:57:15.609Z,30.12
2018-04-20T10:58:15.867Z,30.12
2018-04-20T10:59:15.954Z,30.18
2018-04-20T11:00:16.142Z,30.32
2018-04-20T11:01:16.339Z,30.46
2018-04-20T11:02:16.563Z,30.57
2018-04-20T11:03:16.754Z,30.78
2018-04-20T11:04:16.921Z,30.62
2018-04-20T11:05:17.114Z,30.72
2018-04-20T11:06:17.303Z,30.62
2018-04-20T11:07:17.447Z,30.70
2018-04-20T11:08:17.656Z,30.65
2018-04-20T11:09:17.853Z,30.32
2018-04-20T11:10:18.029Z,30.30
2018-04-20T11:11:18.228Z,29.73
2018-04-20T11:12:18.634Z,29.88
2018-04-20T11:13:18.552Z,29.98
2018-04-20T11:14:18.760Z,29.82
2018-04-20T11:15:18.940Z,29.87
2018-04-20T11:16:19.124Z,30.08
2018-04-20T11:17:19.304Z,29.98
2018-04-20T11:18:19.457Z,30.19
2018-04-20T11:19:19.681Z,29.87
2018-04-20T11:20:19.828Z,29.75
2018-04-20T11:21:20.035Z,29.86
2018-04-20T11:22:20.370Z,29.87
2018-04-20T11:23:20.391Z,30.00
2018-04-20T11:24:20.571Z,30.23
2018-04-20T11:25:20.763Z,30.51
2018-04-20T11:26:21.117Z,30.63
2018-04-20T11:27:21.157Z,29.86
2018-04-20T11:28:21.312Z,30.03
2018-04-20T11:29:21.545Z,30.32
2018-04-20T11:30:21.785Z,30.18
2018-04-20T11:31:21.880Z,30.28
2018-04-20T11:32:22.121Z,30.35
2018-04-20T11:33:22.298Z,30.35
2018-04-20T11:34:22.427Z,30.18
2018-04-20T11:35:23.177Z,30.28
2018-04-20T11:36:23.651Z,29.94
2018-04-20T11:37:23.060Z,30.00
2018-04-20T11:38:23.264Z,30.06
2018-04-20T11:39:23.426Z,30.27
2018-04-20T11:40:23.632Z,30.34
2018-04-20T11:41:23.797Z,30.18
2018-04-20T11:42:24.141Z,30.23
2018-04-20T11:43:24.212Z,30.37
2018-04-20T11:44:24.410Z,30.39
2018-04-20T11:45:24.598Z,30.47
2018-04-20T11:46:24.748Z,30.24
2018-04-20T11:47:25.114Z,30.25
2018-04-20T11:48:25.337Z,30.25
2018-04-20T11:49:25.436Z,29.95
2018-04-20T11:50:25.556Z,29.87
2018-04-20T11:51:25.743Z,29.49
2018-04-20T11:52:26.073Z,29.57
2018-04-20T11:53:26.058Z,29.73
2018-04-20T11:54:26.290Z,29.87
2018-04-20T11:55:26.461Z,29.93
2018-04-20T11:56:26.617Z,29.98
2018-04-20T11:57:28.770Z,29.93
2018-04-20T11:58:27.475Z,29.93
2018-04-20T11:59:27.179Z,29.87
2018-04-20T12:00:27.352Z,29.51
2018-04-20T12:01:27.688Z,29.20
2018-04-20T12:02:29.751Z,29.32
2018-04-20T12:03:27.926Z,29.44
2018-04-20T12:04:28.103Z,29.50
2018-04-20T12:05:28.298Z,29.50
2018-04-20T12:06:28.484Z,29.45
2018-04-20T12:07:29.040Z,29.36
2018-04-20T12:08:28.833Z,29.17
2018-04-20T12:09:28.987Z,29.29
2018-04-20T12:10:29.169Z,29.08
2018-04-20T12:11:29.349Z,29.19
2018-04-20T12:12:29.520Z,29.19
2018-04-20T12:13:29.702Z,29.32
2018-04-20T12:14:30.585Z,29.49
2018-04-20T12:15:30.204Z,29.35
2018-04-20T12:16:30.550Z,29.32
2018-04-20T12:17:31.699Z,29.32
2018-04-20T12:18:31.003Z,28.97
2018-04-20T12:19:30.885Z,29.16
2018-04-20T12:20:31.066Z,29.38
2018-04-20T12:21:31.448Z,29.68
2018-04-20T12:22:31.424Z,29.75
2018-04-20T12:23:31.603Z,29.95
2018-04-20T12:24:31.771Z,30.02
2018-04-20T12:25:31.934Z,30.09
2018-04-20T12:26:32.123Z,29.72
2018-04-20T12:27:32.292Z,28.84
2018-04-20T12:28:32.477Z,28.29
2018-04-20T12:29:32.671Z,28.56
2018-04-20T12:30:32.855Z,28.94
2018-04-20T12:31:33.078Z,29.26
2018-04-20T12:32:33.225Z,29.23
2018-04-20T12:33:33.476Z,29.29
2018-04-20T12:34:33.572Z,29.50
2018-04-20T12:35:33.772Z,29.72
2018-04-20T12:36:33.976Z,29.56
2018-04-20T12:37:34.137Z,29.76
2018-04-20T12:38:34.340Z,29.87
2018-04-20T12:39:34.464Z,29.87
2018-04-20T12:40:34.694Z,29.84
2018-04-20T12:41:35.035Z,29.79
2018-04-20T12:42:35.140Z,30.02
2018-04-20T12:43:35.318Z,29.86
2018-04-20T12:44:35.458Z,29.84
2018-04-20T12:45:35.696Z,29.78
2018-04-20T12:46:35.815Z,29.59
2018-04-20T12:47:36.001Z,29.32
2018-04-20T12:48:36.218Z,29.14
2018-04-20T12:49:36.342Z,28.98
2018-04-20T12:50:36.530Z,28.70
2018-04-20T12:51:36.730Z,28.47
2018-04-20T12:52:36.888Z,28.56
2018-04-20T12:53:37.159Z,28.15
2018-04-20T12:54:37.262Z,28.37
2018-04-20T12:55:37.468Z,28.60
2018-04-20T12:56:37.663Z,28.82
2018-04-20T12:57:37.830Z,29.19
2018-04-20T12:58:38.026Z,29.35
2018-04-20T12:59:38.261Z,29.36
2018-04-20T13:00:38.423Z,29.50
2018-04-20T13:01:38.593Z,29.50
2018-04-20T13:02:38.788Z,29.39
2018-04-20T13:03:38.981Z,29.41
2018-04-20T13:04:39.134Z,29.39
2018-04-20T13:05:39.321Z,29.16
2018-04-20T13:06:39.453Z,29.32
2018-04-20T13:07:40.603Z,29.31